Main page
METAR-TAF:

METAR-TAF

Airports :

Büchel Air Base

Büchel, Germany

latitude: 50-10N, longitude: 007-04E, elevation: 478 m

Current weather observation

The report was made 1 hour and 6 minutes ago, at 11:20 UTC
Wind 5 kt from the West/Southwest
Temperature 19°C
Humidity 68%
Pressure 1022 hPa
Visibility 10 km or more
Scattered clouds at a height of 2600 ft

METAR: ETSB 171120Z 24005KT 9999 SCT026 19/13 Q1022 BLU+BLU TEMPO BLU+

Time: 14:26 (12:26 UTC)

Forecast

The report was made 2 hours and 7 minutes ago, at 10:19 UTC
Forecast valid from 17 at 11 UTC to 17 at 20 UTC
Wind 7 kt from the West
Visibility 10 km or more
Scattered clouds at a height of 3000 ft
Broken clouds at a height of 6000 ft

TAF: ETSB 171019Z 1711/1720 26007KT 9999 NSW SCT030 BKN060

Weather observations and forecasts of more than 4000 airports (METAR and TAF reports).

The available stations are represented by yellow and red dots on the map.

Hover mouse over dot to see the name of the station.

Then click to see weather observations and forecasts.

To change the map : click on the green buttons with a black cross to zoom in, on the green button with a dash to zoom out, or on the green arrows for adjacent maps.


METAR-TAF: